Time;durP1;ratioP1;P1;durP2;ratioP2;P2;SDS_P1;SDS_P2;PMS_P1;PMS_P2;Temp;Humidity;BMP_temperature;BMP_pressure;BME280_temperature;BME280_humidity;BME280_pressure;Samples;Min_cycle;Max_cycle;Signal;HPM_P1;HPM_P2
2021/11/05 00:00:50;;;;;;;;;;;;;;;15.24;54.85;101681.44;5022059;28;19929;-88
2021/11/05 00:03:15;;;;;;;;;;;;;;;15.67;53.77;101677.34;5021007;28;19925;-88
2021/11/05 00:05:40;;;;;;;;;;;;;;;15.65;53.33;101677.41;5021612;28;19928;-92
2021/11/05 00:08:10;;;;;;;;;;;;;;;16.00;52.24;101677.31;5006556;28;19945;-88
2021/11/05 00:10:36;;;;;;;;;;;;;;;15.60;52.97;101674.94;5021207;28;19917;-89
2021/11/05 00:13:02;;;;;;;;;;;;;;;15.69;52.81;101678.16;5005919;28;19918;-88
2021/11/05 00:15:28;;;;;;;;;;;;;;;15.76;52.34;101676.81;5020928;28;19968;-87
2021/11/05 00:17:53;;;;;;;;;;;;;;;15.90;52.08;101676.97;5020691;28;20342;-89
2021/11/05 00:20:19;;;;;;;;;;;;;;;16.04;51.36;101684.34;5020915;28;19922;-90
2021/11/05 00:22:44;;;;;;;;;;;;;;;16.30;50.23;101682.88;5021085;28;19922;-89
2021/11/05 00:25:09;;;;;;;;;;;;;;;16.08;50.44;101682.34;5004603;28;20363;-87
2021/11/05 00:27:39;;;;;;;;;;;;;;;16.19;50.09;101679.00;5019621;28;20456;-88
2021/11/05 00:30:05;;;;;;;;;;;;;;;16.12;50.96;101697.56;5004786;28;19918;-89
2021/11/05 00:32:30;;;;;;;;;;;;;;;16.01;50.77;101698.19;5020240;28;19925;-89
2021/11/05 00:34:55;;;;;;;;;;;;;;;16.12;50.84;101703.91;5020579;28;20000;-88
2021/11/05 00:37:20;;;;;;;;;;;;;;;16.15;50.73;101704.69;5019855;28;20516;-89
2021/11/05 00:39:45;;;;;;;;;;;;;;;16.36;49.90;101710.78;5018717;28;19921;-90
2021/11/05 00:42:11;;;;;;;;;;;;;;;16.42;49.98;101704.94;5019384;28;19969;-88
2021/11/05 00:44:36;;;;;;;;;;;;;;;16.18;50.10;101719.03;5017424;28;19922;-88
2021/11/05 00:47:01;;;;;;;;;;;;;;;16.07;50.34;101713.34;5020045;28;20276;-89
2021/11/05 00:49:26;;;;;;;;;;;;;;;16.15;49.89;101710.16;5019108;28;19922;-89
2021/11/05 00:51:52;;;;;;;;;;;;;;;16.07;49.87;101721.53;5019001;28;19918;-91
2021/11/05 00:54:17;;;;;;;;;;;;;;;15.90;50.45;101711.56;5019136;28;19902;-90
2021/11/05 00:56:42;;;;;;;;;;;;;;;16.12;49.68;101716.66;5002973;28;19917;-90
2021/11/05 00:59:07;;;;;;;;;;;;;;;16.03;49.73;101719.94;5018824;28;19957;-88
2021/11/05 01:01:33;;;;;;;;;;;;;;;16.21;49.57;101723.47;5003978;28;20271;-90
2021/11/05 01:03:58;;;;;;;;;;;;;;;16.14;49.57;101731.13;5019273;28;20085;-90
2021/11/05 01:06:23;;;;;;;;;;;;;;;15.68;50.87;101725.47;5019277;28;19997;-89
2021/11/05 01:08:48;;;;;;;;;;;;;;;15.30;52.88;101736.63;5019407;28;19918;-91
2021/11/05 01:11:14;;;;;;;;;;;;;;;15.29;52.91;101740.31;5018754;28;19918;-87
2021/11/05 01:13:40;;;;;;;;;;;;;;;15.03;54.52;101745.28;5017913;28;19954;-87
2021/11/05 01:16:05;;;;;;;;;;;;;;;14.94;54.38;101743.03;5018192;28;20021;-88
2021/11/05 01:18:30;;;;;;;;;;;;;;;15.73;52.84;101751.53;5018424;28;19972;-89
2021/11/05 01:20:56;;;;;;;;;;;;;;;15.94;52.73;101752.25;5018600;28;20400;-89
2021/11/05 01:23:21;;;;;;;;;;;;;;;16.29;51.84;101754.81;5018993;28;19988;-89
2021/11/05 01:25:50;;;;;;;;;;;;;;;16.18;51.93;101749.06;5019588;28;19965;-87
2021/11/05 01:28:16;;;;;;;;;;;;;;;16.30;51.87;101742.94;5004005;28;19937;-88
2021/11/05 01:30:41;;;;;;;;;;;;;;;16.46;51.49;101747.50;5017150;28;19918;-88
2021/11/05 01:33:07;;;;;;;;;;;;;;;16.63;50.91;101738.31;5018120;28;20003;-89
2021/11/05 01:35:36;;;;;;;;;;;;;;;16.82;50.55;101735.38;5018218;28;19957;-91
2021/11/05 01:38:02;;;;;;;;;;;;;;;16.74;50.57;101734.94;5018246;28;20379;-88
2021/11/05 01:40:27;;;;;;;;;;;;;;;16.76;50.10;101735.75;5003253;28;19953;-90
2021/11/05 01:42:53;;;;;;;;;;;;;;;17.08;49.47;101738.44;5018303;28;19925;-88
2021/11/05 01:45:18;;;;;;;;;;;;;;;17.13;48.92;101742.63;5019015;28;19924;-89
2021/11/05 01:47:43;;;;;;;;;;;;;;;17.24;48.99;101732.88;5017678;28;20083;-89
2021/11/05 01:50:10;;;;;;;;;;;;;;;17.09;48.94;101742.91;5016912;28;19941;-88
2021/11/05 01:52:37;;;;;;;;;;;;;;;16.71;49.63;101743.31;5019107;28;20331;-90
2021/11/05 01:55:03;;;;;;;;;;;;;;;16.52;50.09;101755.34;5021235;28;19918;-91
2021/11/05 01:57:28;;;;;;;;;;;;;;;16.38;50.64;101752.50;5021885;28;20287;-87
2021/11/05 01:59:53;;;;;;;;;;;;;;;16.70;49.44;101750.66;5026082;28;19924;-87
2021/11/05 02:02:19;;;;;;;;;;;;;;;16.63;49.23;101754.72;5027824;28;19918;-87
2021/11/05 02:04:44;;;;;;;;;;;;;;;16.54;49.47;101769.78;5026518;28;19976;-88
2021/11/05 02:07:10;;;;;;;;;;;;;;;16.50;49.39;101768.22;5021351;28;20303;-89
2021/11/05 02:09:38;;;;;;;;;;;;;;;16.52;49.08;101762.66;5021830;28;19979;-89
2021/11/05 02:12:03;;;;;;;;;;;;;;;16.35;49.61;101766.34;5018314;28;19940;-90
2021/11/05 02:14:28;;;;;;;;;;;;;;;16.18;50.07;101760.00;5017581;28;20134;-90
2021/11/05 02:16:58;;;;;;;;;;;;;;;16.24;49.65;101769.69;5017803;28;19937;-91
2021/11/05 02:19:24;;;;;;;;;;;;;;;16.11;49.91;101772.25;5017495;28;20367;-90
2021/11/05 02:21:52;;;;;;;;;;;;;;;15.62;51.60;101767.59;5002027;28;20330;-88
2021/11/05 02:24:17;;;;;;;;;;;;;;;15.42;52.22;101777.72;5018953;28;19918;-87
2021/11/05 02:26:43;;;;;;;;;;;;;;;15.97;50.34;101780.31;5031245;28;19901;-90
2021/11/05 02:29:09;;;;;;;;;;;;;;;16.12;49.80;101774.91;5031015;28;19925;-90
2021/11/05 02:31:34;;;;;;;;;;;;;;;15.99;50.17;101783.81;5020832;28;20295;-88
2021/11/05 02:34:00;;;;;;;;;;;;;;;15.87;50.35;101790.88;5021696;28;19918;-91
2021/11/05 02:36:26;;;;;;;;;;;;;;;15.48;51.43;101779.25;5018535;28;19917;-90
2021/11/05 02:38:51;;;;;;;;;;;;;;;15.32;52.10;101787.34;5020309;28;19922;-88
2021/11/05 02:41:16;;;;;;;;;;;;;;;15.82;50.13;101782.94;5022862;28;19925;-92
2021/11/05 02:43:42;;;;;;;;;;;;;;;15.63;51.05;101791.19;5017215;28;19918;-90
2021/11/05 02:46:07;;;;;;;;;;;;;;;15.70;51.13;101786.28;5017380;28;20009;-90
2021/11/05 02:48:33;;;;;;;;;;;;;;;15.76;50.27;101789.56;5017201;28;19932;-91
2021/11/05 02:50:59;;;;;;;;;;;;;;;15.75;50.19;101786.94;5017772;28;19918;-90
2021/11/05 02:53:24;;;;;;;;;;;;;;;15.94;49.67;101778.63;5017909;28;19968;-87
2021/11/05 02:55:49;;;;;;;;;;;;;;;15.97;49.63;101796.69;5016669;28;19925;-91
2021/11/05 02:58:14;;;;;;;;;;;;;;;16.01;49.59;101790.09;5018113;28;19924;-88
2021/11/05 03:00:45;;;;;;;;;;;;;;;15.98;49.22;101790.28;5018744;28;19945;-91
2021/11/05 03:03:10;;;;;;;;;;;;;;;15.94;49.19;101795.91;5022708;28;20314;-88
2021/11/05 03:05:35;;;;;;;;;;;;;;;15.51;50.43;101792.72;5023797;28;19918;-88
2021/11/05 03:08:00;;;;;;;;;;;;;;;15.74;50.00;101798.78;5026907;28;19922;-91
2021/11/05 03:10:27;;;;;;;;;;;;;;;15.45;50.85;101801.25;5025108;28;19940;-89
2021/11/05 03:12:53;;;;;;;;;;;;;;;15.28;51.53;101809.41;5021153;28;19925;-91
2021/11/05 03:15:18;;;;;;;;;;;;;;;15.10;51.81;101814.88;5021673;28;19922;-89
2021/11/05 03:17:44;;;;;;;;;;;;;;;15.45;51.27;101809.44;5019512;28;20303;-88
2021/11/05 03:20:11;;;;;;;;;;;;;;;15.38;50.92;101810.69;5005527;28;19917;-90
2021/11/05 03:22:37;;;;;;;;;;;;;;;15.38;50.51;101811.59;5021578;28;19925;-89
2021/11/05 03:25:02;;;;;;;;;;;;;;;15.59;50.22;101820.50;5021897;28;19917;-91
2021/11/05 03:27:28;;;;;;;;;;;;;;;15.54;49.78;101817.13;5020446;28;19925;-91
2021/11/05 03:29:53;;;;;;;;;;;;;;;15.11;51.30;101819.34;5019841;28;19922;-91
2021/11/05 03:32:18;;;;;;;;;;;;;;;15.20;51.20;101818.91;5004720;28;19924;-91
2021/11/05 03:34:44;;;;;;;;;;;;;;;15.51;50.05;101833.63;5019316;28;19968;-89
2021/11/05 03:37:09;;;;;;;;;;;;;;;15.44;50.41;101832.19;5021151;28;19918;-90
2021/11/05 03:39:34;;;;;;;;;;;;;;;15.60;49.14;101837.72;5023215;28;19953;-91
2021/11/05 03:42:01;;;;;;;;;;;;;;;15.49;49.69;101838.31;5023397;28;19985;-91
2021/11/05 03:44:27;;;;;;;;;;;;;;;15.69;48.76;101842.69;5023763;28;19946;-91
2021/11/05 03:46:53;;;;;;;;;;;;;;;15.59;49.49;101847.78;5023117;28;19968;-90
2021/11/05 03:49:18;;;;;;;;;;;;;;;15.45;49.26;101855.78;5024137;28;19928;-89
2021/11/05 03:51:43;;;;;;;;;;;;;;;15.37;49.66;101847.13;5024232;28;19922;-91
2021/11/05 03:54:09;;;;;;;;;;;;;;;15.46;49.68;101852.09;5024092;28;20445;-89
2021/11/05 03:56:35;;;;;;;;;;;;;;;15.24;49.83;101855.03;5024324;28;19918;-91
2021/11/05 03:59:00;;;;;;;;;;;;;;;15.14;50.07;101867.38;5024062;28;19918;-92
2021/11/05 04:01:25;;;;;;;;;;;;;;;15.42;49.11;101861.41;5023784;28;19999;-91
2021/11/05 04:03:51;;;;;;;;;;;;;;;15.38;49.00;101859.78;5008032;28;19922;-91
2021/11/05 04:06:17;;;;;;;;;;;;;;;15.42;48.99;101866.84;5023754;28;19918;-92
2021/11/05 04:08:42;;;;;;;;;;;;;;;15.24;49.58;101880.44;5022957;28;19942;-91
2021/11/05 04:11:08;;;;;;;;;;;;;;;15.20;49.50;101878.88;5022168;28;20363;-92
2021/11/05 04:13:33;;;;;;;;;;;;;;;15.29;48.40;101876.63;5022191;28;19924;-91
2021/11/05 04:15:58;;;;;;;;;;;;;;;15.33;48.59;101879.09;5006951;28;20032;-88
2021/11/05 04:18:24;;;;;;;;;;;;;;;15.31;48.24;101880.13;5020264;28;19926;-90
2021/11/05 04:20:49;;;;;;;;;;;;;;;15.16;48.99;101888.16;5022362;28;19925;-92
2021/11/05 04:23:17;;;;;;;;;;;;;;;15.38;49.03;101892.50;5021299;28;19918;-90
2021/11/05 04:25:42;;;;;;;;;;;;;;;15.38;48.72;101897.97;5020590;28;19940;-89
2021/11/05 04:28:08;;;;;;;;;;;;;;;15.46;48.74;101895.72;5019976;28;20366;-89
2021/11/05 04:30:33;;;;;;;;;;;;;;;15.50;48.95;101891.00;5020619;28;20271;-90
2021/11/05 04:32:58;;;;;;;;;;;;;;;15.47;48.89;101902.06;5020917;28;19925;-90
2021/11/05 04:35:24;;;;;;;;;;;;;;;15.52;48.83;101899.97;5020918;28;19925;-89
2021/11/05 04:37:49;;;;;;;;;;;;;;;15.35;48.82;101909.94;5021717;28;20388;-88
2021/11/05 04:40:14;;;;;;;;;;;;;;;15.44;48.43;101918.59;5006824;28;19918;-87
2021/11/05 04:42:40;;;;;;;;;;;;;;;15.38;48.47;101917.94;5020570;28;19917;-89
2021/11/05 04:45:05;;;;;;;;;;;;;;;15.12;49.18;101919.22;5020237;28;19918;-89
2021/11/05 04:47:30;;;;;;;;;;;;;;;15.29;49.41;101920.25;5020505;28;19929;-92
2021/11/05 04:49:56;;;;;;;;;;;;;;;15.27;49.14;101922.16;5005555;28;19973;-87
2021/11/05 04:52:21;;;;;;;;;;;;;;;15.22;49.18;101926.00;5020164;28;19914;-90
2021/11/05 04:54:46;;;;;;;;;;;;;;;14.94;50.30;101926.47;5020885;28;20056;-88
2021/11/05 04:57:13;;;;;;;;;;;;;;;14.99;49.87;101928.97;5020437;28;19918;-90
2021/11/05 04:59:38;;;;;;;;;;;;;;;15.18;49.21;101938.00;5005364;28;19913;-90
2021/11/05 05:02:04;;;;;;;;;;;;;;;15.23;48.72;101935.06;5020124;28;19961;-89
2021/11/05 05:04:29;;;;;;;;;;;;;;;15.26;48.46;101947.66;5019490;28;19977;-88
2021/11/05 05:06:54;;;;;;;;;;;;;;;15.17;48.36;101947.16;5018897;28;19918;-86
2021/11/05 05:09:20;;;;;;;;;;;;;;;15.10;48.94;101953.88;5019731;28;19922;-87
2021/11/05 05:11:46;;;;;;;;;;;;;;;14.94;49.41;101952.84;5019219;28;19917;-87
2021/11/05 05:14:14;;;;;;;;;;;;;;;15.04;49.13;101959.63;5019994;28;19917;-89
2021/11/05 05:16:40;;;;;;;;;;;;;;;15.04;48.70;101956.91;5021375;28;19917;-87
2021/11/05 05:19:05;;;;;;;;;;;;;;;15.23;48.38;101963.22;5020882;28;19928;-87
2021/11/05 05:21:30;;;;;;;;;;;;;;;15.14;48.50;101968.22;5019052;28;19973;-89
2021/11/05 05:23:56;;;;;;;;;;;;;;;14.80;50.06;101967.13;5004546;28;20371;-86
2021/11/05 05:26:21;;;;;;;;;;;;;;;14.58;51.60;101978.09;5022047;28;19929;-86
2021/11/05 05:28:48;;;;;;;;;;;;;;;13.96;53.40;101979.03;5028817;28;20168;-85
2021/11/05 05:31:13;;;;;;;;;;;;;;;14.24;53.52;101985.97;5031598;28;19925;-89
2021/11/05 05:33:39;;;;;;;;;;;;;;;14.68;51.86;101985.81;5034083;28;19906;-87
2021/11/05 05:36:05;;;;;;;;;;;;;;;14.65;51.53;101987.81;5026410;28;19918;-88
2021/11/05 05:38:30;;;;;;;;;;;;;;;14.48;52.46;101997.59;5017718;28;20441;-89
2021/11/05 05:40:55;;;;;;;;;;;;;;;14.75;51.81;102000.03;5016378;28;19918;-87
2021/11/05 05:43:21;;;;;;;;;;;;;;;14.57;52.51;101995.41;5017323;28;19921;-89
2021/11/05 05:45:46;;;;;;;;;;;;;;;14.83;51.44;102000.56;5016931;28;19987;-88
2021/11/05 05:48:11;;;;;;;;;;;;;;;15.17;50.46;102000.78;5016874;28;19926;-88
2021/11/05 05:50:37;;;;;;;;;;;;;;;15.22;50.18;102007.78;5016402;28;19918;-87
2021/11/05 05:53:03;;;;;;;;;;;;;;;15.06;50.06;102004.91;5001070;28;20012;-88
2021/11/05 05:55:28;;;;;;;;;;;;;;;14.94;50.22;102010.06;5022110;28;19980;-88
2021/11/05 05:57:54;;;;;;;;;;;;;;;15.04;50.48;102012.28;5015912;28;19925;-94
2021/11/05 06:00:19;;;;;;;;;;;;;;;15.09;49.93;102011.19;5017174;28;19922;-93
2021/11/05 06:02:45;;;;;;;;;;;;;;;15.15;49.62;102019.94;5016204;28;19926;-91
2021/11/05 06:05:11;;;;;;;;;;;;;;;15.23;49.22;102020.47;5022771;28;19918;-89
2021/11/05 06:07:36;;;;;;;;;;;;;;;14.98;50.26;102020.75;5017270;28;19922;-88
2021/11/05 06:10:04;;;;;;;;;;;;;;;15.05;50.14;102021.31;5002763;28;20430;-86
2021/11/05 06:12:29;;;;;;;;;;;;;;;15.28;49.34;102028.41;5018564;28;19917;-89
2021/11/05 06:14:56;;;;;;;;;;;;;;;14.93;50.58;102041.88;5025344;28;19922;-90
2021/11/05 06:17:21;;;;;;;;;;;;;;;15.16;50.36;102027.16;5024920;28;19930;-86
2021/11/05 06:19:46;;;;;;;;;;;;;;;15.35;50.40;102035.34;5025863;28;19928;-87
2021/11/05 06:22:12;;;;;;;;;;;;;;;15.46;50.30;102043.00;5017096;28;19905;-86
2021/11/05 06:24:37;;;;;;;;;;;;;;;15.31;50.80;102054.63;5016936;28;19953;-88
2021/11/05 06:27:03;;;;;;;;;;;;;;;15.06;51.89;102061.25;5016351;28;20379;-89
2021/11/05 06:29:28;;;;;;;;;;;;;;;15.58;50.73;102057.88;5017717;28;20008;-90
2021/11/05 06:31:53;;;;;;;;;;;;;;;15.86;49.97;102067.44;5020383;28;19961;-89
2021/11/05 06:34:19;;;;;;;;;;;;;;;16.01;49.88;102061.19;5018202;28;19941;-88
2021/11/05 06:36:44;;;;;;;;;;;;;;;15.67;50.96;102072.88;5019615;28;20000;-93
2021/11/05 06:39:10;;;;;;;;;;;;;;;16.02;49.86;102067.53;5019825;28;19914;-91
2021/11/05 06:41:35;;;;;;;;;;;;;;;15.97;50.21;102064.16;5017264;28;19921;-88
2021/11/05 06:44:01;;;;;;;;;;;;;;;16.06;49.58;102070.06;5017058;28;19932;-90
2021/11/05 06:46:26;;;;;;;;;;;;;;;15.92;50.15;102075.31;5017073;28;19925;-89
2021/11/05 06:48:51;;;;;;;;;;;;;;;15.92;49.64;102076.19;5017766;28;19918;-91
2021/11/05 06:51:17;;;;;;;;;;;;;;;15.71;50.47;102086.28;5019825;28;19920;-90
2021/11/05 06:53:42;;;;;;;;;;;;;;;15.36;51.44;102096.22;5019353;28;19925;-93
2021/11/05 06:56:08;;;;;;;;;;;;;;;14.93;52.89;102103.66;5018716;28;19968;-89
2021/11/05 06:58:35;;;;;;;;;;;;;;;15.29;52.13;102102.91;5015801;28;19913;-90
2021/11/05 07:01:01;;;;;;;;;;;;;;;15.57;51.12;102103.34;5015146;28;19925;-88
2021/11/05 07:03:27;;;;;;;;;;;;;;;15.82;50.23;102107.66;5016658;28;19917;-88
2021/11/05 07:05:52;;;;;;;;;;;;;;;15.74;50.19;102109.81;5016055;28;19976;-90
2021/11/05 07:08:17;;;;;;;;;;;;;;;15.84;50.25;102113.91;5017937;28;20429;-89
2021/11/05 07:10:45;;;;;;;;;;;;;;;15.97;50.88;102114.16;5018341;28;20001;-91
2021/11/05 07:13:10;;;;;;;;;;;;;;;16.01;50.95;102106.72;5019840;28;19964;-94
2021/11/05 07:15:36;;;;;;;;;;;;;;;16.14;50.75;102116.06;5018750;28;19922;-91
2021/11/05 07:18:01;;;;;;;;;;;;;;;15.97;50.46;102119.63;5017991;28;19925;-90
2021/11/05 07:20:27;;;;;;;;;;;;;;;16.26;49.39;102120.91;5019914;28;19917;-90
2021/11/05 07:22:52;;;;;;;;;;;;;;;16.31;49.24;102137.03;5021406;28;20334;-90
2021/11/05 07:25:18;;;;;;;;;;;;;;;16.03;49.96;102146.59;5019287;28;19918;-90
2021/11/05 07:27:44;;;;;;;;;;;;;;;16.01;49.96;102145.81;5014227;28;19925;-91
2021/11/05 07:30:10;;;;;;;;;;;;;;;16.18;49.16;102155.88;5014051;28;19918;-91
2021/11/05 07:32:37;;;;;;;;;;;;;;;16.12;49.38;102157.09;5014682;28;20396;-91
2021/11/05 07:35:03;;;;;;;;;;;;;;;16.13;48.93;102160.69;5014098;28;19917;-91
2021/11/05 07:37:29;;;;;;;;;;;;;;;16.02;49.21;102165.78;5015226;28;19918;-91
2021/11/05 07:39:54;;;;;;;;;;;;;;;16.09;49.08;102173.63;5015190;28;19918;-91
2021/11/05 07:42:20;;;;;;;;;;;;;;;16.26;48.65;102180.97;5014737;28;19937;-90
2021/11/05 07:44:45;;;;;;;;;;;;;;;16.17;49.01;102177.78;5015351;28;19941;-92
2021/11/05 07:47:10;;;;;;;;;;;;;;;16.31;48.84;102183.47;5017599;28;20375;-91
2021/11/05 07:49:36;;;;;;;;;;;;;;;16.33;48.64;102186.13;5014482;28;19918;-91
2021/11/05 07:52:02;;;;;;;;;;;;;;;16.35;48.67;102192.38;5015605;28;20013;-90
2021/11/05 07:54:28;;;;;;;;;;;;;;;16.17;49.11;102196.91;5018887;28;20025;-90
2021/11/05 07:56:53;;;;;;;;;;;;;;;15.92;49.57;102195.41;5018819;28;19949;-90
2021/11/05 07:59:19;;;;;;;;;;;;;;;16.09;49.34;102202.75;5018760;28;19922;-90
2021/11/05 08:01:44;;;;;;;;;;;;;;;15.49;51.20;102205.59;5017404;28;19929;-91
2021/11/05 08:04:09;;;;;;;;;;;;;;;15.83;50.86;102210.38;5019406;28;19924;-89
2021/11/05 08:06:34;;;;;;;;;;;;;;;15.84;50.63;102217.59;5019335;28;19966;-90
2021/11/05 08:09:00;;;;;;;;;;;;;;;15.97;50.29;102217.88;5018895;28;19925;-90
2021/11/05 08:11:29;;;;;;;;;;;;;;;15.71;51.98;102221.84;5018840;28;19918;-90
2021/11/05 08:13:55;;;;;;;;;;;;;;;16.00;51.38;102217.72;5018940;28;19953;-88
2021/11/05 08:16:20;;;;;;;;;;;;;;;16.33;51.38;102221.63;5017758;28;19918;-84
2021/11/05 08:18:45;;;;;;;;;;;;;;;15.99;51.74;102226.91;5016393;28;20004;-87
2021/11/05 08:21:11;;;;;;;;;;;;;;;16.37;52.36;102226.84;5017786;28;19926;-89
2021/11/05 08:23:39;;;;;;;;;;;;;;;17.11;51.09;102231.28;5017478;28;20367;-86
2021/11/05 08:26:06;;;;;;;;;;;;;;;16.91;51.22;102236.91;5018750;28;19917;-87
2021/11/05 08:28:31;;;;;;;;;;;;;;;16.25;52.05;102239.25;5030302;28;19930;-88
2021/11/05 08:30:57;;;;;;;;;;;;;;;17.07;51.82;102243.34;5034933;28;19981;-92
2021/11/05 08:33:32;;;;;;;;;;;;;;;17.84;50.67;102247.38;5027011;28;19981;-89
2021/11/05 08:36:01;;;;;;;;;;;;;;;17.90;49.71;102243.44;5021588;28;19922;-89
2021/11/05 08:38:26;;;;;;;;;;;;;;;18.00;48.66;102250.19;5026373;28;19929;-89
2021/11/05 08:40:54;;;;;;;;;;;;;;;18.19;48.75;102250.03;5025462;28;19917;-87
2021/11/05 08:43:21;;;;;;;;;;;;;;;18.28;49.10;102258.66;5030636;28;19918;-87
2021/11/05 08:45:47;;;;;;;;;;;;;;;18.31;49.53;102264.84;5023090;28;19918;-89
2021/11/05 08:48:13;;;;;;;;;;;;;;;18.52;49.02;102268.19;5027836;28;20271;-87
2021/11/05 08:50:39;;;;;;;;;;;;;;;18.88;49.57;102275.25;5021852;28;19928;-91
2021/11/05 08:53:04;;;;;;;;;;;;;;;19.48;48.62;102277.06;5036527;28;19921;-89
2021/11/05 08:55:29;;;;;;;;;;;;;;;19.84;47.72;102283.13;5021059;28;19929;-90
2021/11/05 08:57:55;;;;;;;;;;;;;;;20.16;47.03;102281.03;5025651;28;19944;-90
2021/11/05 09:00:27;;;;;;;;;;;;;;;20.17;47.71;102282.78;5025173;28;20431;-89
2021/11/05 09:02:53;;;;;;;;;;;;;;;19.88;47.04;102286.53;5037618;28;19918;-90
2021/11/05 09:05:18;;;;;;;;;;;;;;;19.68;47.32;102291.41;5037911;28;19925;-89
2021/11/05 09:07:44;;;;;;;;;;;;;;;20.30;46.75;102291.09;5038540;28;19997;-88
2021/11/05 09:10:12;;;;;;;;;;;;;;;19.97;47.03;102292.34;5037334;28;19918;-87
2021/11/05 09:12:39;;;;;;;;;;;;;;;20.33;46.48;102292.78;5037013;28;19902;-89
2021/11/05 09:15:05;;;;;;;;;;;;;;;20.16;47.73;102300.25;5036037;28;19953;-87
2021/11/05 09:17:31;;;;;;;;;;;;;;;18.89;49.04;102300.84;5037222;28;19925;-86
2021/11/05 09:19:56;;;;;;;;;;;;;;;19.23;49.22;102305.13;5035830;28;20020;-89
2021/11/05 09:22:21;;;;;;;;;;;;;;;18.83;49.38;102310.25;5036725;28;19921;-90
2021/11/05 09:24:46;;;;;;;;;;;;;;;18.49;50.70;102314.97;5037589;28;20359;-87
2021/11/05 09:27:12;;;;;;;;;;;;;;;17.28;52.81;102323.38;5036902;28;19918;-86
2021/11/05 09:29:37;;;;;;;;;;;;;;;17.86;51.46;102323.94;5037384;28;19933;-87
2021/11/05 09:32:03;;;;;;;;;;;;;;;17.10;53.03;102333.41;5038829;28;19981;-88
2021/11/05 09:34:31;;;;;;;;;;;;;;;17.85;51.84;102327.66;5036502;28;19917;-86
2021/11/05 09:36:57;;;;;;;;;;;;;;;17.71;51.94;102328.44;5036260;28;19917;-87
2021/11/05 09:39:22;;;;;;;;;;;;;;;17.94;51.00;102332.66;5037587;28;20393;-86
2021/11/05 09:41:47;;;;;;;;;;;;;;;17.50;53.09;102345.03;5038699;28;19926;-86
2021/11/05 09:44:14;;;;;;;;;;;;;;;18.09;52.07;102341.91;5037414;28;20404;-86
2021/11/05 09:46:39;;;;;;;;;;;;;;;19.36;48.00;102337.34;5037637;28;20013;-89
2021/11/05 09:49:05;;;;;;;;;;;;;;;19.17;48.26;102351.28;5038156;28;19901;-88
2021/11/05 09:51:30;;;;;;;;;;;;;;;19.11;48.50;102360.75;5022760;28;19920;-88
2021/11/05 09:53:59;;;;;;;;;;;;;;;19.50;48.55;102358.44;5038013;28;19981;-92
2021/11/05 09:56:24;;;;;;;;;;;;;;;20.24;46.49;102359.34;5043141;28;20286;-92
2021/11/05 09:58:49;;;;;;;;;;;;;;;20.57;45.80;102374.63;5041874;28;19917;-91
2021/11/05 10:01:15;;;;;;;;;;;;;;;20.81;45.06;102370.25;5040264;28;19917;-90
2021/11/05 10:03:40;;;;;;;;;;;;;;;21.59;43.51;102376.94;5040578;28;19898;-90
2021/11/05 10:06:10;;;;;;;;;;;;;;;21.34;43.54;102378.59;5038897;28;20270;-91
2021/11/05 10:08:36;;;;;;;;;;;;;;;20.54;45.58;102387.56;5036663;28;20125;-89
2021/11/05 10:11:19;;;;;;;;;;;;;;;21.28;44.07;102380.91;5035497;28;19961;-89
2021/11/05 10:13:44;;;;;;;;;;;;;;;21.63;43.06;102388.63;5036089;28;20015;-88
2021/11/05 10:16:12;;;;;;;;;;;;;;;22.06;42.43;102375.44;5035316;28;19952;-90
2021/11/05 10:18:52;;;;;;;;;;;;;;;21.67;42.36;102385.53;5034917;28;19926;-90
2021/11/05 10:21:17;;;;;;;;;;;;;;;22.81;39.95;102381.91;5035659;28;19923;-92
2021/11/05 10:23:43;;;;;;;;;;;;;;;22.28;40.35;102388.53;5036630;28;20449;-89
2021/11/05 10:26:18;;;;;;;;;;;;;;;21.68;41.39;102392.81;5037681;28;19924;-89
2021/11/05 10:28:44;;;;;;;;;;;;;;;22.35;42.35;102396.41;5037061;28;20051;-89
2021/11/05 10:31:10;;;;;;;;;;;;;;;21.73;43.44;102403.50;5037630;28;19960;-86
2021/11/05 10:33:37;;;;;;;;;;;;;;;;;;5038905;28;19918;-88
2021/11/05 10:36:04;;;;;;;;;;;;;;;20.66;45.42;102399.66;5023309;28;19901;-89
2021/11/05 10:38:31;;;;;;;;;;;;;;;20.29;45.86;102406.63;5037727;28;19956;-88
2021/11/05 10:40:57;;;;;;;;;;;;;;;18.97;48.32;102413.69;5036905;28;19928;-88
2021/11/05 10:43:32;;;;;;;;;;;;;;;18.76;49.28;102416.66;5035330;28;19986;-88
2021/11/05 10:45:57;;;;;;;;;;;;;;;18.59;49.62;102411.25;5018967;28;19971;-88
2021/11/05 10:48:23;;;;;;;;;;;;;;;19.18;48.71;102418.91;5036829;28;20340;-87
2021/11/05 10:50:55;;;;;;;;;;;;;;;21.01;45.46;102417.56;5035209;28;19918;-87
2021/11/05 10:53:25;;;;;;;;;;;;;;;21.31;43.42;102422.00;5034980;28;20010;-87
2021/11/05 10:55:52;;;;;;;;;;;;;;;20.57;44.21;102421.34;5034474;28;19941;-89
2021/11/05 10:58:22;;;;;;;;;;;;;;;21.09;43.62;102423.47;5034106;28;19964;-86
2021/11/05 11:00:49;;;;;;;;;;;;;;;22.38;41.32;102424.63;5033677;28;19924;-89
2021/11/05 11:03:21;;;;;;;;;;;;;;;22.41;40.93;102412.50;5036996;28;19925;-89
2021/11/05 11:05:47;;;;;;;;;;;;;;;21.70;41.46;102425.78;5035067;28;19924;-88
2021/11/05 11:08:34;;;;;;;;;;;;;;;19.85;44.60;102416.69;5033446;28;20004;-88
2021/11/05 11:11:19;;;;;;;;;;;;;;;21.01;43.16;102426.69;5034181;28;19997;-86
2021/11/05 11:13:45;;;;;;;;;;;;;;;20.67;43.59;102428.06;5034655;28;19929;-87
2021/11/05 11:16:10;;;;;;;;;;;;;;;;;;5020830;28;20024;-88
2021/11/05 11:18:50;;;;;;;;;;;;;;;20.66;44.61;102426.28;5018582;28;19988;-86
2021/11/05 11:21:16;;;;;;;;;;;;;;;21.47;43.28;102427.31;5035289;28;19965;-87
2021/11/05 11:23:41;;;;;;;;;;;;;;;21.12;42.34;102436.09;5040640;28;19929;-85
2021/11/05 11:26:07;;;;;;;;;;;;;;;19.94;44.22;102429.88;5020286;28;19918;-88
2021/11/05 11:28:33;;;;;;;;;;;;;;;19.54;45.39;102435.03;5039257;28;19918;-89
2021/11/05 11:30:58;;;;;;;;;;;;;;;19.47;45.64;102445.50;5039027;28;20299;-86
2021/11/05 11:33:24;;;;;;;;;;;;;;;19.07;46.21;102445.09;5039904;28;19918;-85
2021/11/05 11:35:51;;;;;;;;;;;;;;;19.73;45.17;102450.38;5039342;28;19918;-86
2021/11/05 11:38:17;;;;;;;;;;;;;;;20.30;43.68;102450.50;5037218;28;20259;-84
2021/11/05 11:40:42;;;;;;;;;;;;;;;20.76;42.68;102445.81;5037734;28;20367;-86
2021/11/05 11:43:08;;;;;;;;;;;;;;;20.96;40.87;102450.03;5022255;28;19923;-86
2021/11/05 11:45:42;;;;;;;;;;;;;;;20.86;42.20;102455.22;5022804;28;20314;-89
2021/11/05 11:48:07;;;;;;;;;;;;;;;19.48;43.47;102455.47;5021916;28;19971;-88
2021/11/05 11:50:36;;;;;;;;;;;;;;;20.33;42.52;102454.94;5039232;28;19917;-86
2021/11/05 11:53:05;;;;;;;;;;;;;;;19.97;42.76;102464.50;5021731;28;19928;-87
2021/11/05 11:55:31;;;;;;;;;;;;;;;18.72;44.31;102460.78;5038181;28;19989;-88
2021/11/05 11:58:18;;;;;;;;;;;;;;;19.12;44.22;102459.41;5038471;28;19918;-86
2021/11/05 12:00:45;;;;;;;;;;;;;;;19.94;42.99;102465.59;5022029;28;19921;-87
2021/11/05 12:03:12;;;;;;;;;;;;;;;19.17;44.01;102469.25;5024071;28;20378;-89
2021/11/05 12:05:39;;;;;;;;;;;;;;;18.29;45.69;102469.53;5038579;28;19925;-87
2021/11/05 12:08:11;;;;;;;;;;;;;;;18.37;44.97;102472.75;5039086;28;19942;-88
2021/11/05 12:10:37;;;;;;;;;;;;;;;18.98;44.91;102477.66;5038418;28;20290;-88
2021/11/05 12:13:22;;;;;;;;;;;;;;;19.47;43.69;102478.44;5036701;28;19963;-88
2021/11/05 12:16:07;;;;;;;;;;;;;;;19.08;43.99;102477.06;5020565;28;20285;-88
2021/11/05 12:18:33;;;;;;;;;;;;;;;17.98;45.99;102476.69;5020073;28;19925;-89
2021/11/05 12:21:16;;;;;;;;;;;;;;;18.92;45.05;102477.03;5036894;28;19948;-87
2021/11/05 12:23:41;;;;;;;;;;;;;;;18.00;46.39;102482.94;5020218;28;19964;-86
2021/11/05 12:26:06;;;;;;;;;;;;;;;18.21;46.09;102480.03;5037577;28;19917;-87
2021/11/05 12:28:41;;;;;;;;;;;;;;;18.39;44.93;102481.78;5021020;28;19971;-87
2021/11/05 12:31:26;;;;;;;;;;;;;;;18.53;45.18;102486.50;5021680;28;20016;-88
2021/11/05 12:33:51;;;;;;;;;;;;;;;18.98;44.24;102488.63;5037160;28;19980;-86